createdAt,value
2022-11-01T00:01:08.965Z,34.90
2022-11-01T00:03:35.795Z,33.55
2022-11-01T00:06:02.567Z,39.03
2022-11-01T00:08:29.583Z,31.83
2022-11-01T00:11:08.541Z,37.67
2022-11-01T00:13:35.284Z,38.55
2022-11-01T00:16:02.055Z,44.08
2022-11-01T00:18:28.890Z,42.92
2022-11-01T00:20:55.631Z,49.58
2022-11-01T00:23:22.487Z,49.70
2022-11-01T00:25:49.266Z,48.22
2022-11-01T00:28:16.122Z,42.17
2022-11-01T00:30:42.847Z,41.67
2022-11-01T00:33:09.630Z,44.03
2022-11-01T00:35:36.977Z,43.65
2022-11-01T00:38:04.763Z,46.05
2022-11-01T00:40:31.727Z,53.17
2022-11-01T00:42:58.494Z,49.40
2022-11-01T00:45:25.355Z,50.40
2022-11-01T00:47:52.107Z,42.95
2022-11-01T00:50:18.895Z,41.50
2022-11-01T00:52:45.628Z,46.20
2022-11-01T00:55:12.434Z,47.13
2022-11-01T00:57:39.213Z,44.60
2022-11-01T01:00:06.635Z,46.47
2022-11-01T01:02:33.450Z,43.80
2022-11-01T01:05:00.240Z,43.15
2022-11-01T01:07:26.987Z,44.40
2022-11-01T01:09:53.889Z,40.53
2022-11-01T01:12:20.627Z,38.63
2022-11-01T01:14:47.483Z,41.90
2022-11-01T01:17:14.545Z,39.75
2022-11-01T01:19:41.361Z,34.45
2022-11-01T01:22:08.160Z,30.98
2022-11-01T01:24:34.907Z,33.13
2022-11-01T01:27:01.631Z,30.27
2022-11-01T01:29:28.439Z,29.17
2022-11-01T01:31:55.324Z,35.40
2022-11-01T01:34:22.128Z,33.03
2022-11-01T01:36:48.879Z,36.70
2022-11-01T01:39:15.643Z,36.78
2022-11-01T01:41:57.638Z,28.20
2022-11-01T01:44:46.374Z,31.60
2022-11-01T01:47:18.176Z,36.35
2022-11-01T01:49:46.184Z,31.98
2022-11-01T01:52:13.773Z,35.55
2022-11-01T01:54:40.775Z,33.05
2022-11-01T01:57:08.489Z,32.30
2022-11-01T01:59:36.517Z,30.98
2022-11-01T02:02:03.702Z,30.13
2022-11-01T02:04:44.561Z,29.05
2022-11-01T02:07:12.001Z,33.80
2022-11-01T02:09:39.601Z,34.83
2022-11-01T02:12:07.293Z,37.00
2022-11-01T02:14:34.227Z,29.60
2022-11-01T02:17:42.231Z,32.60
2022-11-01T02:20:32.170Z,34.40
2022-11-01T02:23:28.369Z,35.67
2022-11-01T02:26:27.194Z,36.05
2022-11-01T02:29:10.141Z,34.67
2022-11-01T02:31:57.689Z,41.35
2022-11-01T02:34:27.231Z,35.67
2022-11-01T02:37:20.552Z,36.13
2022-11-01T02:39:52.595Z,42.92
2022-11-01T02:44:56.348Z,42.72
2022-11-01T02:47:25.174Z,52.60
2022-11-01T02:49:54.793Z,45.58
2022-11-01T02:52:27.551Z,48.47
2022-11-01T02:55:00.219Z,49.45
2022-11-01T02:57:39.119Z,51.67
2022-11-01T03:00:26.335Z,54.15
2022-11-01T03:03:19.704Z,60.05
2022-11-01T03:06:09.828Z,53.30
2022-11-01T03:08:50.192Z,64.35
2022-11-01T03:11:18.108Z,63.00
2022-11-01T03:14:21.999Z,61.53
2022-11-01T03:17:03.416Z,55.40
2022-11-01T03:19:37.365Z,57.25
2022-11-01T03:22:13.250Z,57.33
2022-11-01T03:24:45.852Z,49.25
2022-11-01T03:27:38.012Z,59.17
2022-11-01T03:30:14.230Z,51.38
2022-11-01T03:32:53.891Z,58.85
2022-11-01T03:35:24.567Z,56.35
2022-11-01T03:37:55.441Z,61.70
2022-11-01T03:40:24.742Z,56.53
2022-11-01T03:42:54.646Z,58.63
2022-11-01T03:45:25.529Z,62.22
2022-11-01T03:47:52.693Z,57.17
2022-11-01T03:50:20.852Z,47.70
2022-11-01T03:52:48.111Z,54.53
2022-11-01T03:55:19.919Z,47.70
2022-11-01T03:57:54.841Z,57.05
2022-11-01T04:00:27.431Z,53.65
2022-11-01T04:02:55.469Z,52.28
2022-11-01T04:05:24.448Z,58.22
2022-11-01T04:07:53.960Z,54.78
2022-11-01T04:10:22.255Z,55.70
2022-11-01T04:12:50.389Z,61.33
2022-11-01T04:15:37.206Z,61.10
2022-11-01T04:18:23.645Z,62.65
2022-11-01T04:20:50.755Z,56.42
2022-11-01T04:23:17.661Z,55.13
2022-11-01T04:25:46.908Z,57.63
2022-11-01T04:28:15.033Z,56.70
2022-11-01T04:30:43.833Z,46.90
2022-11-01T04:33:10.735Z,50.20
2022-11-01T04:35:38.200Z,50.78
2022-11-01T04:38:06.176Z,53.28
2022-11-01T04:40:34.394Z,50.88
2022-11-01T04:43:01.359Z,62.67
2022-11-01T04:45:28.307Z,62.92
2022-11-01T04:48:05.381Z,63.97
2022-11-01T04:50:33.476Z,52.78
2022-11-01T04:53:01.402Z,57.38
2022-11-01T04:55:28.928Z,47.75
2022-11-01T04:57:55.882Z,63.28
2022-11-01T05:00:25.880Z,53.17
2022-11-01T05:03:00.264Z,55.10
2022-11-01T05:05:27.597Z,58.40
2022-11-01T05:08:05.212Z,67.75
2022-11-01T05:10:33.909Z,60.47
2022-11-01T05:13:01.722Z,65.30
2022-11-01T05:15:28.785Z,63.45
2022-11-01T05:17:55.667Z,65.82
2022-11-01T05:20:22.530Z,55.13
2022-11-01T05:22:49.423Z,53.67
2022-11-01T05:25:17.929Z,53.95
2022-11-01T05:27:44.783Z,58.88
2022-11-01T05:30:12.249Z,54.95
2022-11-01T05:32:39.024Z,63.70
2022-11-01T05:35:06.367Z,61.95
2022-11-01T05:37:33.218Z,56.10
2022-11-01T05:39:59.932Z,62.70
2022-11-01T05:42:26.920Z,58.63
2022-11-01T05:44:53.709Z,67.38
2022-11-01T05:47:20.809Z,60.53
2022-11-01T05:49:47.488Z,59.13
2022-11-01T05:52:14.289Z,59.42
2022-11-01T05:54:41.053Z,61.80
2022-11-01T05:57:07.784Z,63.28
2022-11-01T05:59:34.548Z,65.05
2022-11-01T06:02:01.516Z,69.63
2022-11-01T06:04:28.395Z,59.92
2022-11-01T06:06:55.186Z,63.20
2022-11-01T06:09:22.312Z,55.80
2022-11-01T06:11:49.734Z,62.47
2022-11-01T06:14:16.530Z,63.53
2022-11-01T06:16:44.714Z,68.50
2022-11-01T06:19:11.724Z,60.58
2022-11-01T06:21:38.467Z,68.75
2022-11-01T06:24:05.585Z,66.18
2022-11-01T06:26:32.338Z,61.47
2022-11-01T06:29:02.713Z,64.38
2022-11-01T06:31:29.664Z,66.43
2022-11-01T06:33:56.645Z,52.15
2022-11-01T06:36:23.822Z,65.82
2022-11-01T06:38:50.782Z,60.97
2022-11-01T06:41:17.846Z,66.05
2022-11-01T06:43:44.656Z,72.45
2022-11-01T06:46:11.353Z,61.70
2022-11-01T06:48:38.138Z,70.47
2022-11-01T06:51:05.449Z,72.70
2022-11-01T06:53:32.295Z,66.85
2022-11-01T06:56:00.003Z,61.92
2022-11-01T06:58:27.645Z,62.35
2022-11-01T07:00:54.658Z,67.28
2022-11-01T07:03:21.480Z,66.32
2022-11-01T07:05:50.062Z,59.60
2022-11-01T07:08:17.007Z,63.95
2022-11-01T07:10:43.857Z,59.97
2022-11-01T07:13:13.271Z,52.30
2022-11-01T07:15:40.121Z,49.38
2022-11-01T07:18:08.555Z,57.72
2022-11-01T07:20:41.489Z,55.40
2022-11-01T07:23:14.021Z,61.53
2022-11-01T07:25:41.452Z,52.60
2022-11-01T07:28:08.617Z,55.72
2022-11-01T07:30:35.685Z,60.58
2022-11-01T07:33:05.046Z,59.78
2022-11-01T07:35:32.671Z,59.13
2022-11-01T07:38:02.748Z,65.18
2022-11-01T07:40:32.229Z,55.15
2022-11-01T07:43:00.378Z,57.15
2022-11-01T07:45:33.127Z,61.67
2022-11-01T07:48:06.338Z,61.25
2022-11-01T07:50:34.115Z,63.05
2022-11-01T07:53:06.181Z,63.58
2022-11-01T07:55:33.726Z,67.93
2022-11-01T07:58:01.020Z,64.93
2022-11-01T08:00:28.425Z,59.00
2022-11-01T08:03:03.536Z,59.60
2022-11-01T08:05:31.213Z,60.38
2022-11-01T08:07:58.384Z,61.58
2022-11-01T08:10:25.654Z,61.90
2022-11-01T08:12:52.604Z,67.43
2022-11-01T08:15:19.376Z,61.33
2022-11-01T08:17:46.244Z,62.55
2022-11-01T08:20:13.358Z,62.75
2022-11-01T08:22:40.776Z,59.55
2022-11-01T08:25:08.398Z,66.10
2022-11-01T08:27:35.523Z,57.50
2022-11-01T08:30:02.722Z,60.13
2022-11-01T08:32:29.488Z,58.83
2022-11-01T08:34:56.200Z,64.68
2022-11-01T08:37:23.705Z,58.90
2022-11-01T08:39:50.464Z,55.03
2022-11-01T08:42:17.279Z,56.35
2022-11-01T08:44:44.075Z,59.35
2022-11-01T08:47:12.599Z,61.72
2022-11-01T08:49:39.445Z,56.88
2022-11-01T08:52:06.302Z,55.53
2022-11-01T08:54:34.303Z,50.67
2022-11-01T08:57:04.650Z,52.85
2022-11-01T08:59:31.486Z,57.63
2022-11-01T09:01:58.388Z,57.38
2022-11-01T09:04:25.320Z,57.25
2022-11-01T09:06:52.132Z,62.60
2022-11-01T09:09:18.915Z,51.80
2022-11-01T09:11:45.703Z,56.72
2022-11-01T09:14:12.416Z,57.20
2022-11-01T09:16:39.155Z,51.83
2022-11-01T09:19:06.015Z,52.72
2022-11-01T09:21:32.807Z,53.67
2022-11-01T09:23:59.873Z,54.47
2022-11-01T09:26:29.686Z,57.47
2022-11-01T09:28:58.707Z,53.30
2022-11-01T09:31:25.996Z,52.47
2022-11-01T09:33:56.060Z,57.28
2022-11-01T09:36:24.405Z,58.00
2022-11-01T09:38:51.747Z,48.22
2022-11-01T09:41:39.066Z,51.80
2022-11-01T09:44:08.300Z,48.28
2022-11-01T09:47:02.291Z,51.80
2022-11-01T09:49:33.775Z,52.40
2022-11-01T09:52:00.805Z,50.20
2022-11-01T09:54:28.505Z,55.63
2022-11-01T09:57:26.805Z,46.15
2022-11-01T10:00:20.741Z,48.70
2022-11-01T10:03:06.560Z,53.22
2022-11-01T10:05:52.228Z,46.65
2022-11-01T10:08:46.222Z,48.28
2022-11-01T10:11:43.063Z,43.72
2022-11-01T10:14:34.727Z,45.22
2022-11-01T10:17:07.036Z,43.78
2022-11-01T10:19:35.459Z,47.40
2022-11-01T10:22:12.544Z,46.22
2022-11-01T10:24:43.075Z,43.35
2022-11-01T10:27:18.633Z,45.17
2022-11-01T10:29:57.791Z,46.63
2022-11-01T10:32:31.182Z,41.90
2022-11-01T10:35:06.410Z,43.58
2022-11-01T10:37:51.865Z,46.10
2022-11-01T10:40:40.584Z,50.83
2022-11-01T10:43:16.665Z,40.05
2022-11-01T10:45:47.786Z,44.03
2022-11-01T10:48:32.955Z,48.53
2022-11-01T10:51:03.782Z,44.50
2022-11-01T10:53:37.654Z,38.53
2022-11-01T10:56:09.113Z,45.55
2022-11-01T10:58:47.811Z,46.30
2022-11-01T11:01:23.029Z,43.40
2022-11-01T11:03:50.872Z,51.80
2022-11-01T11:06:18.974Z,58.17
2022-11-01T11:08:51.588Z,50.47
2022-11-01T11:11:22.171Z,53.67
2022-11-01T11:13:53.777Z,54.10
2022-11-01T11:16:31.806Z,47.63
2022-11-01T11:19:22.761Z,58.40
2022-11-01T11:21:52.107Z,48.53
2022-11-01T11:24:21.772Z,52.30
2022-11-01T11:27:03.452Z,57.53
2022-11-01T11:29:49.550Z,55.33
2022-11-01T11:32:25.492Z,54.80
2022-11-01T11:34:58.471Z,55.60
2022-11-01T11:37:29.346Z,51.28
2022-11-01T11:40:21.797Z,54.83
2022-11-01T11:42:49.834Z,70.75
2022-11-01T11:45:28.243Z,58.70
2022-11-01T11:47:56.225Z,51.10
2022-11-01T11:50:32.409Z,49.88
2022-11-01T11:53:14.926Z,53.72
2022-11-01T11:55:47.996Z,48.42
2022-11-01T11:58:26.994Z,52.05
2022-11-01T12:01:00.845Z,43.55
2022-11-01T12:03:28.896Z,53.00
2022-11-01T12:06:05.558Z,41.20
2022-11-01T12:08:45.337Z,37.22
2022-11-01T12:11:13.221Z,37.65
2022-11-01T12:13:43.733Z,29.85
2022-11-01T12:16:14.715Z,37.90
2022-11-01T12:19:27.304Z,25.77
2022-11-01T12:21:57.018Z,23.55
2022-11-01T12:24:27.823Z,26.70
2022-11-01T12:27:04.461Z,26.20
2022-11-01T12:29:47.545Z,25.40
2022-11-01T12:32:18.918Z,31.27
2022-11-01T12:34:48.547Z,28.30
2022-11-01T12:37:39.514Z,30.63
2022-11-01T12:40:29.043Z,26.95
2022-11-01T12:43:14.509Z,42.20
2022-11-01T12:45:52.712Z,41.67
2022-11-01T12:48:36.053Z,48.35
2022-11-01T12:51:13.177Z,43.67
2022-11-01T12:53:43.208Z,39.25
2022-11-01T12:56:10.421Z,43.88
2022-11-01T12:58:37.260Z,46.63
2022-11-01T13:01:31.592Z,40.28
2022-11-01T13:04:23.981Z,46.92
2022-11-01T13:07:18.538Z,41.50
2022-11-01T13:12:46.878Z,38.30
2022-11-01T13:15:59.365Z,41.97
2022-11-01T13:18:47.287Z,33.45
2022-11-01T13:21:23.122Z,43.58
2022-11-01T13:24:14.093Z,45.83
2022-11-01T13:26:50.078Z,44.90
2022-11-01T13:29:26.968Z,38.50
2022-11-01T13:32:06.935Z,34.90
2022-11-01T13:34:58.100Z,41.95
2022-11-01T13:37:36.743Z,30.90
2022-11-01T13:40:35.480Z,32.05
2022-11-01T13:43:08.448Z,28.23
2022-11-01T13:46:08.108Z,32.83
2022-11-01T13:48:53.993Z,24.90
2022-11-01T13:51:37.394Z,25.33
2022-11-01T13:54:26.049Z,20.85
2022-11-01T13:57:24.924Z,26.35
2022-11-01T14:00:05.044Z,19.27
2022-11-01T14:02:33.573Z,22.90
2022-11-01T14:05:10.735Z,26.50
2022-11-01T14:07:43.580Z,24.42
2022-11-01T14:10:31.778Z,19.65
2022-11-01T14:13:07.866Z,29.33
2022-11-01T14:15:39.534Z,27.42
2022-11-01T14:18:10.465Z,30.85
2022-11-01T14:20:43.036Z,25.73
2022-11-01T14:23:28.098Z,22.77
2022-11-01T14:26:20.272Z,23.10
2022-11-01T14:28:56.940Z,31.02
2022-11-01T14:31:26.446Z,24.00
2022-11-01T14:33:59.045Z,21.65
2022-11-01T14:36:31.135Z,21.65
2022-11-01T14:39:03.599Z,26.23
2022-11-01T14:41:34.348Z,24.70
2022-11-01T14:44:12.293Z,24.73
2022-11-01T14:46:46.261Z,22.75
2022-11-01T14:49:22.233Z,21.88
2022-11-01T14:51:52.842Z,23.75
2022-11-01T14:54:23.960Z,24.85
2022-11-01T14:56:53.336Z,25.70
2022-11-01T14:59:21.427Z,20.15
2022-11-01T15:01:51.866Z,25.75
2022-11-01T15:04:24.320Z,26.08
2022-11-01T15:06:51.514Z,23.98
2022-11-01T15:09:21.899Z,24.25
2022-11-01T15:11:51.265Z,23.50
2022-11-01T15:14:34.392Z,20.52
2022-11-01T15:17:01.423Z,28.35
2022-11-01T15:19:33.945Z,24.52
2022-11-01T15:22:03.575Z,27.45
2022-11-01T15:24:33.124Z,21.33
2022-11-01T15:27:16.545Z,27.48
2022-11-01T15:29:44.149Z,22.25
2022-11-01T15:32:34.084Z,28.90
2022-11-01T15:35:05.882Z,27.25
2022-11-01T15:37:33.641Z,29.30
2022-11-01T15:40:01.659Z,26.42
2022-11-01T15:42:32.124Z,27.75
2022-11-01T15:45:20.160Z,27.60
2022-11-01T15:47:47.214Z,26.67
2022-11-01T15:50:14.543Z,28.30
2022-11-01T15:52:45.349Z,24.73
2022-11-01T15:55:30.201Z,31.30
2022-11-01T15:58:14.315Z,24.40
2022-11-01T16:00:49.913Z,24.15
2022-11-01T16:03:24.904Z,28.98
2022-11-01T16:05:58.517Z,30.73
2022-11-01T16:08:32.543Z,30.58
2022-11-01T16:11:00.343Z,27.25
2022-11-01T16:13:27.212Z,25.27
2022-11-01T16:16:04.720Z,26.45
2022-11-01T16:18:40.381Z,29.55
2022-11-01T16:21:21.296Z,33.53
2022-11-01T16:24:02.814Z,32.13
2022-11-01T16:26:32.329Z,25.30
2022-11-01T16:28:59.085Z,27.40
2022-11-01T16:31:29.053Z,23.55
2022-11-01T16:33:59.069Z,29.13
2022-11-01T16:36:35.582Z,29.48
2022-11-01T16:39:22.768Z,32.35
2022-11-01T16:41:49.626Z,32.38
2022-11-01T16:44:16.843Z,29.13
2022-11-01T16:46:44.296Z,26.00
2022-11-01T16:49:26.270Z,32.15
2022-11-01T16:54:24.647Z,25.65
2022-11-01T16:57:00.430Z,30.13
2022-11-01T16:59:38.408Z,30.83
2022-11-01T17:02:25.689Z,31.27
2022-11-01T17:05:13.083Z,27.42
2022-11-01T17:07:39.861Z,35.75
2022-11-01T17:10:25.855Z,33.75
2022-11-01T17:12:53.918Z,31.35
2022-11-01T17:15:20.920Z,29.67
2022-11-01T17:17:48.937Z,30.98
2022-11-01T17:20:26.433Z,32.67
2022-11-01T17:22:55.367Z,31.27
2022-11-01T17:25:27.101Z,28.83
2022-11-01T17:27:54.544Z,32.63
2022-11-01T17:30:21.393Z,27.95
2022-11-01T17:32:48.709Z,33.78
2022-11-01T17:35:16.057Z,35.40
2022-11-01T17:37:43.136Z,38.75
2022-11-01T17:40:22.361Z,30.05
2022-11-01T17:42:49.082Z,29.88
2022-11-01T17:45:16.034Z,25.48
2022-11-01T17:47:42.976Z,35.80
2022-11-01T17:50:15.263Z,24.73
2022-11-01T17:52:43.142Z,30.60
2022-11-01T17:55:10.978Z,29.13
2022-11-01T17:57:43.503Z,20.00
2022-11-01T18:00:11.124Z,24.20
2022-11-01T18:02:37.902Z,22.85
2022-11-01T18:05:05.246Z,22.50
2022-11-01T18:07:40.421Z,24.83
2022-11-01T18:10:19.484Z,22.42
2022-11-01T18:13:11.706Z,17.52
2022-11-01T18:16:01.883Z,25.40
2022-11-01T18:18:53.789Z,18.08
2022-11-01T18:21:50.153Z,17.90
2022-11-01T18:24:22.632Z,14.43
2022-11-01T18:26:51.464Z,17.27
2022-11-01T18:29:24.273Z,14.05
2022-11-01T18:32:04.879Z,13.82
2022-11-01T18:34:58.798Z,18.30
2022-11-01T18:37:44.693Z,13.88
2022-11-01T18:40:25.099Z,10.77
2022-11-01T18:42:53.529Z,16.10
2022-11-01T18:45:31.070Z,12.00
2022-11-01T18:48:13.310Z,15.52
2022-11-01T18:50:40.078Z,11.07
2022-11-01T18:53:15.833Z,12.15
2022-11-01T18:55:47.527Z,13.32
2022-11-01T18:58:24.631Z,11.00
2022-11-01T19:01:05.594Z,10.95
2022-11-01T19:03:32.563Z,11.15
2022-11-01T19:06:14.874Z,12.77
2022-11-01T19:08:41.750Z,13.20
2022-11-01T19:11:12.015Z,12.88
2022-11-01T19:13:39.178Z,20.48
2022-11-01T19:16:11.101Z,21.27
2022-11-01T19:21:16.190Z,13.73
2022-11-01T19:23:49.465Z,19.02
2022-11-01T19:26:16.154Z,17.13
2022-11-01T19:28:42.939Z,14.35
2022-11-01T19:31:21.494Z,10.98
2022-11-01T19:33:50.395Z,13.90
2022-11-01T19:36:20.728Z,12.63
2022-11-01T19:38:53.016Z,17.50
2022-11-01T19:41:25.215Z,10.00
2022-11-01T19:43:54.062Z,11.25
2022-11-01T19:46:21.321Z,11.57
2022-11-01T19:48:48.885Z,13.68
2022-11-01T19:51:20.613Z,12.80
2022-11-01T19:53:47.561Z,12.77
2022-11-01T19:56:20.625Z,12.68
2022-11-01T19:59:00.640Z,16.20
2022-11-01T20:01:33.930Z,18.05
2022-11-01T20:04:02.349Z,18.50
2022-11-01T20:06:44.795Z,15.90
2022-11-01T20:09:30.856Z,17.50
2022-11-01T20:11:57.631Z,20.02
2022-11-01T20:14:24.369Z,21.15
2022-11-01T20:16:51.214Z,16.85
2022-11-01T20:19:18.254Z,18.23
2022-11-01T20:21:45.316Z,14.07
2022-11-01T20:24:12.622Z,13.55
2022-11-01T20:26:39.750Z,15.02
2022-11-01T20:29:06.453Z,13.60
2022-11-01T20:31:33.252Z,13.27
2022-11-01T20:34:00.202Z,14.95
2022-11-01T20:36:28.123Z,9.50
2022-11-01T20:38:55.231Z,9.75
2022-11-01T20:41:22.735Z,10.65
2022-11-01T20:43:49.742Z,11.98
2022-11-01T20:46:16.928Z,10.80
2022-11-01T20:48:45.391Z,10.85
2022-11-01T20:51:13.751Z,9.70
2022-11-01T20:53:41.195Z,11.35
2022-11-01T20:56:09.151Z,11.77
2022-11-01T20:58:41.651Z,7.75
2022-11-01T21:01:19.608Z,8.65
2022-11-01T21:03:46.566Z,6.97
2022-11-01T21:06:15.632Z,11.27
2022-11-01T21:08:44.616Z,8.93
2022-11-01T21:11:46.012Z,5.82
2022-11-01T21:14:16.821Z,9.35
2022-11-01T21:16:43.634Z,9.95
2022-11-01T21:19:28.891Z,8.20
2022-11-01T21:21:59.442Z,7.28
2022-11-01T21:24:39.647Z,13.18
2022-11-01T21:27:12.347Z,13.02
2022-11-01T21:29:45.306Z,10.35
2022-11-01T21:32:25.273Z,7.93
2022-11-01T21:34:52.613Z,8.52
2022-11-01T21:37:22.079Z,11.10
2022-11-01T21:39:57.024Z,8.27
2022-11-01T21:42:34.524Z,9.98
2022-11-01T21:45:22.523Z,11.40
2022-11-01T21:47:51.322Z,9.05
2022-11-01T21:50:18.025Z,7.65
2022-11-01T21:52:44.973Z,7.43
2022-11-01T21:55:11.673Z,9.00
2022-11-01T21:57:38.396Z,10.63
2022-11-01T22:00:05.830Z,9.10
2022-11-01T22:02:32.670Z,7.32
2022-11-01T22:04:59.867Z,12.82
2022-11-01T22:07:26.730Z,5.53
2022-11-01T22:09:53.451Z,10.80
2022-11-01T22:12:20.256Z,12.63
2022-11-01T22:14:46.996Z,16.13
2022-11-01T22:17:13.768Z,11.45
2022-11-01T22:19:40.492Z,9.32
2022-11-01T22:22:07.238Z,8.70
2022-11-01T22:24:33.969Z,12.82
2022-11-01T22:27:00.800Z,8.68
2022-11-01T22:29:27.557Z,11.90
2022-11-01T22:31:54.227Z,7.03
2022-11-01T22:34:21.284Z,9.88
2022-11-01T22:36:48.819Z,9.90
2022-11-01T22:39:21.418Z,8.60
2022-11-01T22:41:49.022Z,9.15
2022-11-01T22:44:31.307Z,8.68
2022-11-01T22:47:02.986Z,11.85
2022-11-01T22:49:35.464Z,12.50
2022-11-01T22:52:04.003Z,10.45
2022-11-01T22:54:38.841Z,9.60
2022-11-01T22:57:08.680Z,10.90
2022-11-01T22:59:56.996Z,12.85
2022-11-01T23:02:42.542Z,7.80
2022-11-01T23:05:09.281Z,9.77
2022-11-01T23:07:48.308Z,9.38
2022-11-01T23:10:24.171Z,9.23
2022-11-01T23:13:29.488Z,6.82
2022-11-01T23:16:01.882Z,10.07
2022-11-01T23:18:33.159Z,12.10
2022-11-01T23:21:02.144Z,9.88
2022-11-01T23:23:29.313Z,7.68
2022-11-01T23:25:59.508Z,14.15
2022-11-01T23:28:27.133Z,9.65
2022-11-01T23:30:55.038Z,5.43
2022-11-01T23:33:25.355Z,14.50
2022-11-01T23:35:56.239Z,9.38
2022-11-01T23:38:26.526Z,13.35
2022-11-01T23:40:54.472Z,10.52
2022-11-01T23:43:24.710Z,8.45
2022-11-01T23:45:52.337Z,9.98
2022-11-01T23:48:21.529Z,10.45
2022-11-01T23:50:50.404Z,12.35
2022-11-01T23:53:20.087Z,8.60
2022-11-01T23:55:49.888Z,10.88
2022-11-01T23:58:26.420Z,9.20
